KLAR/LAR METAR and TAF weather

Enter ICAO airport designator
Station Type Date Time Source
KLAR METAR 2020/04/04 19:53 UTC NOAA

KLAR 041953Z AUTO 25013G23KT 10SM CLR 10/M14 A2983 RMK AO2 PK WND 26026/1901 SLP077 T01001139


Station Type Date Time Source
KLAR Decoded METAR 2020/04/04 19:53 UTC NOAA

LARAMIE REGIONAL AIRPORT, WY, United States (KLAR) 41-19N 105-40W 2216M
Apr 04, 2020 - 03:53 PM EDT / 2020.04.04 1953 UTC
Wind: from the WSW (250 degrees) at 15 MPH (13 KT) gusting to 26 MPH (23 KT):0
Visibility: 10 mile(s):0
Sky conditions: clear
Temperature: 50.0 F (10.0 C)
Dew Point: 7.0 F (-13.9 C)
Relative Humidity: 17%
Pressure (altimeter): 29.83 in. Hg (1010 hPa)
ob: KLAR 041953Z AUTO 25013G23KT 10SM CLR 10/M14 A2983 RMK AO2 PK WND 26026/1901 SLP077 T01001139
cycle: 20

Station Type Date Time Source
KLAR TAF 2020/04/04 18:30 UTC NOAA

TAF KLAR 041727Z 0418/0518 24025G38KT P6SM BKN150
FM050100 19008KT P6SM BKN150
FM051700 23013KT P6SM FEW150

Example: see airport list